NCAR-RAP Real-Time Weather Data

Output produced by METARs form (10 April 2020  07:25 UTC)
found at http://weather.rap.ucar.edu/surface/
 
KVTN 100652Z AUTO 18007KT 10SM CLR M04/M11 A3014 RMK AO2 SLP228 T10391106
KVTN 100552Z AUTO 18003KT 10SM CLR M06/M12 A3015 RMK AO2 SLP235 T10611122 10061 21067 400831067 58012
KVTN 100452Z AUTO 00000KT 10SM CLR M04/M12 A3016 RMK AO2 SLP237 T10391117
KVTN 100352Z AUTO 19004KT 10SM CLR M06/M13 A3019 RMK AO2 SLP250 T10561128
KVTN 100252Z AUTO 13003KT 10SM CLR M02/M12 A3019 RMK AO2 SLP247 T10171122 53002
KVTN 100152Z AUTO 04011KT 10SM CLR 02/M12 A3018 RMK AO2 SLP238 T00171122
KVTN 100052Z AUTO 02009KT 10SM CLR 04/M13 A3019 RMK AO2 SLP240 T00391128
KVTN 092352Z AUTO 01011KT 10SM CLR 06/M12 A3019 RMK AO2 SLP239 T00611117 10083 20061 53001
KVTN 092252Z AUTO 35016G23KT 10SM CLR 07/M10 A3017 RMK AO2 SLP235 T00721100
KVTN 092152Z AUTO 33018G27KT 10SM CLR 08/M09 A3017 RMK AO2 PK WND 35028/2105 SLP235 T00831089
KVTN 092052Z AUTO 32018G26KT 10SM CLR 08/M09 A3018 RMK AO2 PK WND 34031/2016 SLP238 T00831094 58007
KVTN 091952Z AUTO 33021G33KT 10SM CLR 07/M10 A3019 RMK AO2 PK WND 34037/1921 SLP243 T00721100
KVTN 091852Z AUTO 32020G29KT 10SM CLR 08/M11 A3020 RMK AO2 PK WND 35034/1831 SLP245 T00781111
KVTN 091752Z AUTO 33018G29KT 10SM CLR 07/M12 A3020 RMK AO2 PK WND 33035/1734 SLP247 T00671117 10072 20028 51013
KVTN 091652Z AUTO 33024G34KT 10SM CLR 06/M11 A3020 RMK AO2 PK WND 32040/1614 SLP241 T00561111
KVTN 091552Z AUTO 34020G34KT 10SM CLR 05/M11 A3018 RMK AO2 PK WND 33037/1533 SLP236 T00501111
KVTN 091452Z AUTO 33025G35KT 9SM CLR 04/M09 A3016 RMK AO2 PK WND 32035/1452 SLP226 T00441089 53016
KVTN 091352Z AUTO 33023G32KT 10SM CLR 04/M09 A3014 RMK AO2 PK WND 33033/1309 SLP220 T00391089
KVTN 091252Z AUTO 31013KT 10SM SCT120 03/M06 A3012 RMK AO2 SLP211 T00331061
KVTN 091152Z AUTO 27011KT 10SM OVC120 03/M06 A3011 RMK AO2 SLP207 T00281061 10028 21033 56003
KVTN 091052Z AUTO 24010KT 10SM BKN120 01/M06 A3011 RMK AO2 SLP209 T00111056
KVTN 090952Z AUTO 29006KT 10SM SCT120 00/M07 A3011 RMK AO2 SLP209 T00001067
KVTN 090852Z AUTO 29007KT 10SM CLR M01/M07 A3012 RMK AO2 SLP212 T10111072 58003